createdAt,value
2022-11-02T00:01:49.739Z,100695.00
2022-11-02T00:04:16.824Z,100705.16
2022-11-02T00:06:44.550Z,100708.63
2022-11-02T00:09:11.249Z,100706.16
2022-11-02T00:11:38.401Z,100709.06
2022-11-02T00:14:05.243Z,100709.19
2022-11-02T00:16:33.370Z,100707.81
2022-11-02T00:19:03.398Z,100704.66
2022-11-02T00:21:30.355Z,100714.91
2022-11-02T00:24:00.754Z,100710.94
2022-11-02T00:26:28.914Z,100716.78
2022-11-02T00:28:55.994Z,100708.28
2022-11-02T00:31:22.867Z,100700.59
2022-11-02T00:33:50.056Z,100715.13
2022-11-02T00:36:17.267Z,100714.66
2022-11-02T00:38:43.927Z,100715.25
2022-11-02T00:41:10.767Z,100715.38
2022-11-02T00:43:37.719Z,100721.66
2022-11-02T00:46:05.109Z,100709.78
2022-11-02T00:48:31.711Z,100713.97
2022-11-02T00:50:58.710Z,100719.31
2022-11-02T00:53:28.331Z,100716.97
2022-11-02T00:55:55.068Z,100717.22
2022-11-02T00:58:21.736Z,100718.72
2022-11-02T01:00:50.545Z,100724.44
2022-11-02T01:03:17.323Z,100725.56
2022-11-02T01:05:44.153Z,100725.56
2022-11-02T01:08:11.374Z,100725.34
2022-11-02T01:10:38.995Z,100730.47
2022-11-02T01:13:06.550Z,100733.84
2022-11-02T01:15:33.307Z,100726.94
2022-11-02T01:17:59.997Z,100727.19
2022-11-02T01:20:27.664Z,100726.72
2022-11-02T01:22:54.197Z,100726.13
2022-11-02T01:25:20.823Z,100730.19
2022-11-02T01:27:47.454Z,100732.06
2022-11-02T01:30:14.379Z,100729.97
2022-11-02T01:32:43.706Z,100724.63
2022-11-02T01:35:10.483Z,100723.94
2022-11-02T01:37:38.405Z,100722.88
2022-11-02T01:40:05.812Z,100720.41
2022-11-02T01:42:32.599Z,100728.56
2022-11-02T01:45:02.644Z,100717.03
2022-11-02T01:47:33.250Z,100725.16
2022-11-02T01:50:13.354Z,100730.66
2022-11-02T01:52:41.478Z,100734.59
2022-11-02T01:55:16.600Z,100739.50
2022-11-02T01:57:49.187Z,100732.63
2022-11-02T02:00:18.334Z,100739.03
2022-11-02T02:03:10.109Z,100744.09
2022-11-02T02:05:43.298Z,100745.75
2022-11-02T02:08:33.055Z,100741.53
2022-11-02T02:10:59.944Z,100748.69
2022-11-02T02:13:28.232Z,100738.53
2022-11-02T02:16:33.618Z,100742.13
2022-11-02T02:19:06.587Z,100751.59
2022-11-02T02:21:45.411Z,100752.16
2022-11-02T02:24:39.568Z,100757.59
2022-11-02T02:27:28.577Z,100765.06
2022-11-02T02:30:05.828Z,100766.94
2022-11-02T02:32:38.701Z,100772.28
2022-11-02T02:35:26.406Z,100768.91
2022-11-02T02:37:57.213Z,100762.13
2022-11-02T02:40:39.417Z,100769.44
2022-11-02T02:43:15.713Z,100769.03
2022-11-02T02:45:50.597Z,100768.28
2022-11-02T02:48:26.148Z,100776.38
2022-11-02T02:51:12.366Z,100768.47
2022-11-02T02:53:45.066Z,100768.38
2022-11-02T02:56:19.064Z,100785.22
2022-11-02T02:58:53.797Z,100788.50
2022-11-02T03:01:20.804Z,100796.38
2022-11-02T03:03:48.234Z,100799.00
2022-11-02T03:06:35.325Z,100795.03
2022-11-02T03:09:14.177Z,100789.66
2022-11-02T03:11:56.622Z,100788.72
2022-11-02T03:14:38.681Z,100794.16
2022-11-02T03:17:16.636Z,100802.38
2022-11-02T03:20:24.095Z,100796.13
2022-11-02T03:23:37.178Z,100799.13
2022-11-02T03:26:04.117Z,100805.78
2022-11-02T03:29:00.842Z,100807.16
2022-11-02T03:31:37.369Z,100814.00
2022-11-02T03:34:25.748Z,100813.56
2022-11-02T03:37:14.690Z,100834.44
2022-11-02T03:39:46.202Z,100830.00
2022-11-02T03:42:18.261Z,100825.53
2022-11-02T03:44:51.891Z,100827.97
2022-11-02T03:47:21.273Z,100835.34
2022-11-02T03:49:51.015Z,100840.09
2022-11-02T03:52:21.376Z,100854.94
2022-11-02T03:55:02.783Z,100860.50
2022-11-02T03:57:36.771Z,100869.75
2022-11-02T04:00:12.054Z,100861.44
2022-11-02T04:02:48.319Z,100860.50
2022-11-02T04:05:15.497Z,100868.25
2022-11-02T04:08:09.196Z,100868.94
2022-11-02T04:10:35.816Z,100870.75
2022-11-02T04:13:21.354Z,100871.38
2022-11-02T04:15:48.149Z,100886.00
2022-11-02T04:18:33.753Z,100876.69
2022-11-02T04:21:00.565Z,100890.03
2022-11-02T04:23:45.810Z,100893.22
2022-11-02T04:26:12.594Z,100907.34
2022-11-02T04:28:43.659Z,100904.22
2022-11-02T04:31:12.981Z,100904.84
2022-11-02T04:33:41.407Z,100906.00
2022-11-02T04:36:14.461Z,100918.00
2022-11-02T04:38:41.944Z,100911.59
2022-11-02T04:41:44.326Z,100919.00
2022-11-02T04:44:33.874Z,100930.81
2022-11-02T04:47:04.920Z,100924.75
2022-11-02T04:49:34.150Z,100931.63
2022-11-02T04:52:00.726Z,100937.38
2022-11-02T04:54:29.183Z,100932.63
2022-11-02T04:57:00.485Z,100950.66
2022-11-02T04:59:28.771Z,100950.34
2022-11-02T05:01:55.764Z,100956.91
2022-11-02T05:04:22.663Z,100952.19
2022-11-02T05:06:49.687Z,100965.00
2022-11-02T05:09:18.308Z,100971.00
2022-11-02T05:11:47.488Z,100970.84
2022-11-02T05:14:14.354Z,100980.34
2022-11-02T05:16:41.086Z,100967.53
2022-11-02T05:19:10.996Z,100977.56
2022-11-02T05:21:39.272Z,100980.53
2022-11-02T05:24:06.898Z,100981.69
2022-11-02T05:26:34.095Z,100988.09
2022-11-02T05:29:00.683Z,100982.34
2022-11-02T05:31:28.019Z,100988.41
2022-11-02T05:33:57.017Z,100995.81
2022-11-02T05:36:23.880Z,101007.28
2022-11-02T05:38:53.998Z,101014.16
2022-11-02T05:41:21.621Z,101011.53
2022-11-02T05:43:49.194Z,101021.56
2022-11-02T05:46:21.544Z,101012.38
2022-11-02T05:48:48.335Z,101020.38
2022-11-02T05:51:14.888Z,101025.97
2022-11-02T05:53:41.551Z,101029.91
2022-11-02T05:56:10.363Z,101026.66
2022-11-02T05:58:37.323Z,101031.06
2022-11-02T06:01:06.765Z,101035.81
2022-11-02T06:03:34.055Z,101038.59
2022-11-02T06:06:04.033Z,101049.13
2022-11-02T06:08:38.545Z,101050.28
2022-11-02T06:11:06.842Z,101054.53
2022-11-02T06:13:34.103Z,101060.28
2022-11-02T06:16:01.348Z,101058.47
2022-11-02T06:18:27.998Z,101065.84
2022-11-02T06:20:58.211Z,101072.72
2022-11-02T06:23:25.775Z,101070.94
2022-11-02T06:25:54.230Z,101083.56
2022-11-02T06:28:21.317Z,101081.44
2022-11-02T06:30:49.452Z,101086.03
2022-11-02T06:33:19.091Z,101088.47
2022-11-02T06:35:54.043Z,101097.19
2022-11-02T06:38:21.669Z,101104.75
2022-11-02T06:40:59.041Z,101113.56
2022-11-02T06:43:26.383Z,101107.69
2022-11-02T06:46:00.057Z,101115.56
2022-11-02T06:48:34.205Z,101109.16
2022-11-02T06:51:02.988Z,101119.66
2022-11-02T06:53:30.025Z,101123.44
2022-11-02T06:55:58.391Z,101127.19
2022-11-02T06:58:25.365Z,101136.38
2022-11-02T07:01:01.425Z,101137.53
2022-11-02T07:03:28.889Z,101147.88
2022-11-02T07:05:56.158Z,101154.59
2022-11-02T07:08:23.225Z,101160.34
2022-11-02T07:10:50.398Z,101165.91
2022-11-02T07:13:17.363Z,101175.25
2022-11-02T07:15:43.968Z,101171.50
2022-11-02T07:18:10.564Z,101182.97
2022-11-02T07:20:37.223Z,101184.44
2022-11-02T07:23:05.655Z,101190.84
2022-11-02T07:25:33.539Z,101190.84
2022-11-02T07:28:01.575Z,101197.41
2022-11-02T07:30:29.740Z,101197.06
2022-11-02T07:32:56.405Z,101200.50
2022-11-02T07:35:23.046Z,101207.91
2022-11-02T07:38:00.474Z,101215.59
2022-11-02T07:40:28.882Z,101216.41
2022-11-02T07:42:56.288Z,101215.59
2022-11-02T07:45:33.201Z,101219.72
2022-11-02T07:47:59.740Z,101210.19
2022-11-02T07:50:27.224Z,101218.56
2022-11-02T07:52:55.843Z,101224.78
2022-11-02T07:55:28.053Z,101215.44
2022-11-02T07:58:09.985Z,101221.50
2022-11-02T08:00:38.893Z,101223.00
2022-11-02T08:03:07.812Z,101228.56
2022-11-02T08:05:36.461Z,101242.50
2022-11-02T08:08:06.039Z,101238.41
2022-11-02T08:10:37.445Z,101247.41
2022-11-02T08:13:11.315Z,101246.59
2022-11-02T08:15:38.175Z,101246.75
2022-11-02T08:18:06.259Z,101252.34
2022-11-02T08:20:34.954Z,101252.97
2022-11-02T08:23:01.990Z,101249.53
2022-11-02T08:25:28.811Z,101253.31
2022-11-02T08:27:59.725Z,101252.00
2022-11-02T08:30:30.596Z,101256.25
2022-11-02T08:33:04.527Z,101261.19
2022-11-02T08:35:31.225Z,101268.41
2022-11-02T08:37:59.858Z,101274.63
2022-11-02T08:40:27.100Z,101274.75
2022-11-02T08:43:00.900Z,101277.56
2022-11-02T08:45:32.350Z,101276.91
2022-11-02T08:48:06.568Z,101276.75
2022-11-02T08:50:34.235Z,101273.31
2022-11-02T08:53:00.873Z,101275.28
2022-11-02T08:55:28.018Z,101273.31
2022-11-02T08:57:57.134Z,101271.97
2022-11-02T09:00:26.523Z,101275.59
2022-11-02T09:03:00.554Z,101272.31
2022-11-02T09:05:28.406Z,101270.00
2022-11-02T09:08:00.246Z,101262.16
2022-11-02T09:10:29.308Z,101262.28
2022-11-02T09:12:56.244Z,101267.06
2022-11-02T09:15:22.920Z,101271.16
2022-11-02T09:17:50.114Z,101275.56
2022-11-02T09:20:17.981Z,101273.94
2022-11-02T09:22:45.457Z,101292.94
2022-11-02T09:25:13.678Z,101291.31
2022-11-02T09:27:41.305Z,101295.38
2022-11-02T09:30:09.210Z,101287.53
2022-11-02T09:32:36.334Z,101296.06
2022-11-02T09:35:06.161Z,101290.03
2022-11-02T09:37:33.508Z,101296.25
2022-11-02T09:40:00.345Z,101299.00
2022-11-02T09:42:37.941Z,101295.38
2022-11-02T09:45:17.150Z,101288.84
2022-11-02T09:48:15.421Z,101288.53
2022-11-02T09:51:15.230Z,101280.66
2022-11-02T09:54:16.184Z,101290.31
2022-11-02T09:56:44.959Z,101289.81
2022-11-02T09:59:16.034Z,101285.41
2022-11-02T10:01:57.837Z,101289.00
2022-11-02T10:04:33.071Z,101286.38
2022-11-02T10:07:12.351Z,101293.56
2022-11-02T10:09:41.820Z,101295.38
2022-11-02T10:12:14.396Z,101299.66
2022-11-02T10:15:02.438Z,101296.69
2022-11-02T10:17:34.058Z,101304.25
2022-11-02T10:20:12.873Z,101311.94
2022-11-02T10:22:42.521Z,101315.22
2022-11-02T10:25:15.966Z,101312.59
2022-11-02T10:27:45.576Z,101312.59
2022-11-02T10:30:16.420Z,101311.63
2022-11-02T10:32:45.033Z,101314.72
2022-11-02T10:35:40.685Z,101304.88
2022-11-02T10:38:38.412Z,101316.50
2022-11-02T10:41:22.144Z,101308.50
2022-11-02T10:44:20.552Z,101314.88
2022-11-02T10:46:47.355Z,101317.22
2022-11-02T10:49:17.293Z,101317.88
2022-11-02T10:51:43.914Z,101315.88
2022-11-02T10:54:17.871Z,101315.88
2022-11-02T10:56:49.461Z,101313.25
2022-11-02T10:59:23.683Z,101312.44
2022-11-02T11:01:56.436Z,101297.38
2022-11-02T11:04:30.552Z,101306.38
2022-11-02T11:07:03.569Z,101302.47
2022-11-02T11:09:40.490Z,101297.53
2022-11-02T11:12:26.324Z,101306.53
2022-11-02T11:20:37.008Z,101302.47
2022-11-02T11:23:12.343Z,101305.56
2022-11-02T11:25:40.700Z,101296.88
2022-11-02T11:28:28.201Z,101293.94
2022-11-02T11:31:14.713Z,101301.81
2022-11-02T11:33:49.198Z,101295.06
2022-11-02T11:36:30.932Z,101295.72
2022-11-02T11:39:01.180Z,101303.44
2022-11-02T11:41:30.067Z,101297.56
2022-11-02T11:43:57.492Z,101293.13
2022-11-02T11:46:39.351Z,101302.78
2022-11-02T11:49:11.703Z,101301.81
2022-11-02T11:51:45.237Z,101291.47
2022-11-02T11:54:21.161Z,101289.00
2022-11-02T11:56:49.302Z,101282.78
2022-11-02T11:59:26.469Z,101268.69
2022-11-02T12:01:57.324Z,101277.88
2022-11-02T12:04:35.396Z,101269.53
2022-11-02T12:07:13.172Z,101267.72
2022-11-02T12:10:19.778Z,101265.72
2022-11-02T12:13:00.507Z,101258.84
2022-11-02T12:15:33.188Z,101258.72
2022-11-02T12:18:18.068Z,101254.94
2022-11-02T12:20:47.413Z,101250.66
2022-11-02T12:23:36.096Z,101240.00
2022-11-02T12:26:29.871Z,101237.06
2022-11-02T12:29:04.567Z,101248.69
2022-11-02T12:31:41.418Z,101238.53
2022-11-02T12:34:52.915Z,101235.44
2022-11-02T12:37:40.906Z,101237.88
2022-11-02T12:40:37.105Z,101239.69
2022-11-02T12:43:32.927Z,101227.38
2022-11-02T12:46:05.933Z,101232.31
2022-11-02T12:49:07.999Z,101236.75
2022-11-02T12:51:43.640Z,101228.38
2022-11-02T12:54:20.837Z,101230.88
2022-11-02T12:56:52.757Z,101229.22
2022-11-02T12:59:25.230Z,101228.22
2022-11-02T13:01:57.581Z,101234.31
2022-11-02T13:04:35.456Z,101224.97
2022-11-02T13:07:11.785Z,101229.88
2022-11-02T13:09:52.158Z,101223.16
2022-11-02T13:12:22.718Z,101218.38
2022-11-02T13:14:52.346Z,101223.81
2022-11-02T13:17:26.236Z,101212.66
2022-11-02T13:19:59.467Z,101212.50
2022-11-02T13:22:35.594Z,101212.31
2022-11-02T13:25:40.387Z,101210.72
2022-11-02T13:28:26.499Z,101210.56
2022-11-02T13:30:54.574Z,101213.00
2022-11-02T13:33:26.554Z,101205.81
2022-11-02T13:35:54.269Z,101200.69
2022-11-02T13:38:26.707Z,101202.50
2022-11-02T13:41:22.644Z,101195.78
2022-11-02T13:44:23.555Z,101189.06
2022-11-02T13:47:24.247Z,101194.66
2022-11-02T13:49:56.348Z,101188.25
2022-11-02T13:52:42.636Z,101196.78
2022-11-02T13:55:18.085Z,101202.50
2022-11-02T13:57:49.393Z,101194.31
2022-11-02T14:00:25.165Z,101192.97
2022-11-02T14:02:58.522Z,101191.50
2022-11-02T14:05:30.686Z,101186.56
2022-11-02T14:08:06.849Z,101180.16
2022-11-02T14:10:38.664Z,101192.00
2022-11-02T14:13:05.747Z,101188.88
2022-11-02T14:15:32.493Z,101186.41
2022-11-02T14:18:25.614Z,101180.50
2022-11-02T14:20:52.579Z,101174.09
2022-11-02T14:23:36.318Z,101170.84
2022-11-02T14:26:03.063Z,101175.09
2022-11-02T14:28:43.265Z,101172.97
2022-11-02T14:31:15.801Z,101172.16
2022-11-02T14:34:00.336Z,101170.00
2022-11-02T14:36:46.002Z,101162.94
2022-11-02T14:39:50.742Z,101157.56
2022-11-02T14:42:34.600Z,101159.19
2022-11-02T14:45:44.395Z,101148.19
2022-11-02T14:48:16.442Z,101154.09
2022-11-02T14:50:57.173Z,101154.25
2022-11-02T14:53:27.488Z,101148.19
2022-11-02T14:55:56.767Z,101151.16
2022-11-02T14:58:37.926Z,101142.47
2022-11-02T15:01:06.364Z,101148.19
2022-11-02T15:03:38.164Z,101141.31
2022-11-02T15:06:17.822Z,101132.78
2022-11-02T15:08:58.247Z,101135.25
2022-11-02T15:11:50.657Z,101136.19
2022-11-02T15:14:35.429Z,101133.28
2022-11-02T15:17:24.200Z,101134.25
2022-11-02T15:19:53.648Z,101136.22
2022-11-02T15:22:28.963Z,101132.94
2022-11-02T15:25:02.320Z,101132.13
2022-11-02T15:27:30.161Z,101120.78
2022-11-02T15:29:58.187Z,101123.44
2022-11-02T15:32:28.814Z,101124.94
2022-11-02T15:34:57.227Z,101124.09
2022-11-02T15:37:50.496Z,101116.22
2022-11-02T15:40:25.986Z,101113.59
2022-11-02T15:43:13.828Z,101108.69
2022-11-02T15:46:02.097Z,101117.53
2022-11-02T15:48:41.360Z,101110.47
2022-11-02T15:51:19.849Z,101102.28
2022-11-02T15:53:55.656Z,101098.19
2022-11-02T15:56:39.677Z,101097.53
2022-11-02T15:59:31.297Z,101095.88
2022-11-02T16:02:11.516Z,101091.97
2022-11-02T16:04:39.087Z,101093.28
2022-11-02T16:07:14.944Z,101092.63
2022-11-02T16:09:41.926Z,101083.13
2022-11-02T16:12:16.590Z,101072.63
2022-11-02T16:14:44.712Z,101081.13
2022-11-02T16:17:20.390Z,101080.66
2022-11-02T16:19:47.083Z,101074.91
2022-11-02T16:22:26.869Z,101086.06
2022-11-02T16:24:54.753Z,101077.38
2022-11-02T16:27:22.699Z,101073.28
2022-11-02T16:29:50.778Z,101078.19
2022-11-02T16:32:17.545Z,101080.47
2022-11-02T16:34:44.427Z,101073.28
2022-11-02T16:37:14.741Z,101076.06
2022-11-02T16:39:46.634Z,101075.72
2022-11-02T16:42:21.429Z,101085.25
2022-11-02T16:44:57.086Z,101083.59
2022-11-02T16:47:50.147Z,101085.25
2022-11-02T16:50:22.507Z,101089.66
2022-11-02T16:52:55.010Z,101090.00
2022-11-02T16:55:40.066Z,101092.13
2022-11-02T16:58:12.362Z,101087.34
2022-11-02T17:00:39.599Z,101079.81
2022-11-02T17:03:14.427Z,101084.44
2022-11-02T17:05:42.446Z,101091.63
2022-11-02T17:08:39.671Z,101085.56
2022-11-02T17:11:12.604Z,101076.53
2022-11-02T17:14:02.322Z,101077.19
2022-11-02T17:16:33.196Z,101085.22
2022-11-02T17:19:03.603Z,101074.38
2022-11-02T17:21:30.564Z,101075.38
2022-11-02T17:23:58.692Z,101072.59
2022-11-02T17:26:28.904Z,101072.41
2022-11-02T17:28:56.925Z,101079.28
2022-11-02T17:31:35.766Z,101077.13
2022-11-02T17:34:10.223Z,101075.78
2022-11-02T17:36:43.962Z,101078.22
2022-11-02T17:39:13.784Z,101078.09
2022-11-02T17:41:59.141Z,101071.34
2022-11-02T17:44:25.870Z,101069.72
2022-11-02T17:46:54.506Z,101072.66
2022-11-02T17:49:21.215Z,101067.91
2022-11-02T17:51:47.949Z,101069.34
2022-11-02T17:54:14.920Z,101058.66
2022-11-02T17:56:41.629Z,101062.28
2022-11-02T17:59:08.237Z,101064.13
2022-11-02T18:01:35.147Z,101059.50
2022-11-02T18:04:02.001Z,101061.47
2022-11-02T18:06:29.774Z,101067.22
2022-11-02T18:09:11.545Z,101068.56
2022-11-02T18:11:38.145Z,101060.38
2022-11-02T18:14:04.973Z,101067.44
2022-11-02T18:16:32.273Z,101073.22
2022-11-02T18:18:59.000Z,101067.13
2022-11-02T18:21:25.624Z,101068.63
2022-11-02T18:23:52.260Z,101055.81
2022-11-02T18:26:19.039Z,101060.25
2022-11-02T18:28:45.610Z,101057.34
2022-11-02T18:31:12.808Z,101054.19
2022-11-02T18:33:39.684Z,101055.19
2022-11-02T18:36:09.292Z,101049.59
2022-11-02T18:38:36.904Z,101046.81
2022-11-02T18:41:27.524Z,101042.00
2022-11-02T18:44:00.554Z,101037.28
2022-11-02T18:46:31.255Z,101032.56
2022-11-02T18:48:58.549Z,101030.75
2022-11-02T18:51:26.028Z,101030.91
2022-11-02T18:53:56.012Z,101028.75
2022-11-02T18:56:23.292Z,101021.56
2022-11-02T18:58:51.242Z,101012.38
2022-11-02T19:01:22.001Z,101015.81
2022-11-02T19:03:53.205Z,101022.38
2022-11-02T19:06:39.154Z,101023.03
2022-11-02T19:09:19.545Z,101019.91
2022-11-02T19:11:47.790Z,101013.41
2022-11-02T19:14:14.801Z,101007.44
2022-11-02T19:16:41.924Z,101004.03
2022-11-02T19:19:09.114Z,101004.22
2022-11-02T19:21:35.894Z,100998.13
2022-11-02T19:24:04.847Z,101000.91
2022-11-02T19:26:31.641Z,100996.38
2022-11-02T19:29:02.902Z,100996.19
2022-11-02T19:31:33.187Z,100991.59
2022-11-02T19:34:00.036Z,100990.94
2022-11-02T19:36:26.788Z,100990.16
2022-11-02T19:38:53.631Z,100989.00
2022-11-02T19:41:21.688Z,100983.28
2022-11-02T19:43:48.267Z,100979.50
2022-11-02T19:46:17.877Z,100975.22
2022-11-02T19:48:45.201Z,100963.94
2022-11-02T19:51:20.420Z,100965.91
2022-11-02T19:53:50.342Z,100965.94
2022-11-02T19:56:18.439Z,100953.59
2022-11-02T19:58:47.483Z,100952.31
2022-11-02T20:01:16.512Z,100941.31
2022-11-02T20:03:43.670Z,100940.66
2022-11-02T20:06:14.071Z,100940.69
2022-11-02T20:08:41.071Z,100943.31
2022-11-02T20:11:10.728Z,100932.16
2022-11-02T20:13:39.081Z,100927.41
2022-11-02T20:16:07.923Z,100920.50
2022-11-02T20:18:35.850Z,100918.03
2022-11-02T20:21:07.528Z,100918.06
2022-11-02T20:23:35.466Z,100917.25
2022-11-02T20:26:04.461Z,100913.66
2022-11-02T20:28:31.836Z,100908.69
2022-11-02T20:30:58.581Z,100906.09
2022-11-02T20:33:25.180Z,100902.81
2022-11-02T20:35:51.896Z,100900.69
2022-11-02T20:38:18.467Z,100896.28
2022-11-02T20:40:45.086Z,100892.19
2022-11-02T20:43:11.644Z,100896.13
2022-11-02T20:45:38.177Z,100888.91
2022-11-02T20:48:05.339Z,100890.06
2022-11-02T20:50:32.546Z,100887.41
2022-11-02T20:52:59.894Z,100884.81
2022-11-02T20:55:26.707Z,100879.41
2022-11-02T20:57:53.343Z,100882.19
2022-11-02T21:00:20.722Z,100877.69
2022-11-02T21:02:48.103Z,100878.22
2022-11-02T21:05:15.071Z,100871.63
2022-11-02T21:07:41.845Z,100857.50
2022-11-02T21:10:09.623Z,100864.03
2022-11-02T21:12:55.222Z,100858.75
2022-11-02T21:15:21.909Z,100854.81
2022-11-02T21:17:48.560Z,100854.13
2022-11-02T21:20:33.232Z,100846.53
2022-11-02T21:23:05.734Z,100845.09
2022-11-02T21:25:33.396Z,100844.06
2022-11-02T21:28:00.516Z,100847.38
2022-11-02T21:30:30.849Z,100843.59
2022-11-02T21:32:58.872Z,100848.34
2022-11-02T21:35:25.760Z,100845.50
2022-11-02T21:37:56.486Z,100837.75
2022-11-02T21:40:23.471Z,100831.09
2022-11-02T21:42:50.248Z,100831.09
2022-11-02T21:45:18.324Z,100838.31
2022-11-02T21:47:45.219Z,100832.06
2022-11-02T21:50:12.699Z,100830.41
2022-11-02T21:52:42.470Z,100820.69
2022-11-02T21:55:11.958Z,100816.94
2022-11-02T21:57:38.883Z,100810.53
2022-11-02T22:00:06.144Z,100820.91
2022-11-02T22:02:39.326Z,100805.31
2022-11-02T22:05:06.387Z,100805.31
2022-11-02T22:07:53.084Z,100816.59
2022-11-02T22:10:19.711Z,100812.78
2022-11-02T22:13:05.029Z,100803.06
2022-11-02T22:15:34.536Z,100800.97
2022-11-02T22:18:04.985Z,100792.59
2022-11-02T22:20:31.550Z,100775.84
2022-11-02T22:22:58.259Z,100786.78
2022-11-02T22:25:25.497Z,100789.72
2022-11-02T22:27:51.990Z,100783.28
2022-11-02T22:30:18.884Z,100787.44
2022-11-02T22:32:45.559Z,100780.88
2022-11-02T22:35:12.360Z,100787.13
2022-11-02T22:37:57.525Z,100781.97
2022-11-02T22:40:24.183Z,100775.63
2022-11-02T22:42:54.435Z,100767.94
2022-11-02T22:45:20.944Z,100776.53
2022-11-02T22:47:50.743Z,100770.13
2022-11-02T22:50:17.440Z,100772.13
2022-11-02T22:52:44.077Z,100770.94
2022-11-02T22:55:10.699Z,100768.38
2022-11-02T22:57:37.215Z,100764.16
2022-11-02T23:00:05.233Z,100760.06
2022-11-02T23:02:31.864Z,100763.84
2022-11-02T23:04:58.470Z,100760.56
2022-11-02T23:07:25.134Z,100762.06
2022-11-02T23:09:51.930Z,100754.19
2022-11-02T23:12:24.375Z,100746.03
2022-11-02T23:14:50.978Z,100740.78
2022-11-02T23:17:17.491Z,100742.22
2022-11-02T23:19:49.585Z,100734.06
2022-11-02T23:22:32.244Z,100726.56
2022-11-02T23:25:18.085Z,100728.22
2022-11-02T23:28:14.257Z,100721.97
2022-11-02T23:30:59.904Z,100711.13
2022-11-02T23:33:44.707Z,100713.09
2022-11-02T23:36:11.517Z,100710.53
2022-11-02T23:38:57.780Z,100703.34
2022-11-02T23:41:25.109Z,100710.53
2022-11-02T23:43:53.228Z,100705.84
2022-11-02T23:46:19.761Z,100710.25
2022-11-02T23:48:49.601Z,100705.63
2022-11-02T23:51:38.320Z,100698.63
2022-11-02T23:54:23.376Z,100693.72
2022-11-02T23:56:50.263Z,100693.53
2022-11-02T23:59:18.351Z,100689.47
